createdAt,value
2017-05-21T00:04:21.247Z,12.76
2017-05-21T00:09:17.147Z,12.70
2017-05-21T00:14:12.981Z,12.47
2017-05-21T00:19:08.433Z,12.15
2017-05-21T00:24:04.488Z,12.24
2017-05-21T00:29:03.184Z,12.27
2017-05-21T00:33:58.406Z,12.28
2017-05-21T00:38:54.553Z,12.22
2017-05-21T00:43:49.982Z,12.15
2017-05-21T00:48:46.554Z,11.78
2017-05-21T00:53:42.308Z,11.90
2017-05-21T00:58:38.256Z,11.87
2017-05-21T01:03:33.620Z,11.97
2017-05-21T01:08:30.058Z,11.95
2017-05-21T01:13:26.004Z,11.83
2017-05-21T01:18:21.759Z,11.87
2017-05-21T01:23:17.850Z,11.91
2017-05-21T01:28:13.453Z,11.90
2017-05-21T01:33:09.422Z,11.69
2017-05-21T01:38:05.046Z,11.63
2017-05-21T01:43:00.872Z,11.52
2017-05-21T01:47:56.401Z,11.54
2017-05-21T01:52:52.376Z,11.60
2017-05-21T01:57:50.106Z,11.55
2017-05-21T02:02:45.379Z,11.66
2017-05-21T02:07:41.359Z,11.54
2017-05-21T02:12:37.536Z,11.48
2017-05-21T02:17:33.188Z,10.93
2017-05-21T02:22:28.830Z,10.94
2017-05-21T02:27:26.049Z,11.43
2017-05-21T02:32:21.782Z,11.51
2017-05-21T02:37:17.733Z,11.51
2017-05-21T02:42:13.570Z,11.41
2017-05-21T02:47:09.378Z,11.22
2017-05-21T02:52:05.261Z,11.00
2017-05-21T02:57:00.863Z,10.78
2017-05-21T03:01:56.623Z,10.79
2017-05-21T03:06:53.734Z,10.94
2017-05-21T03:11:49.208Z,11.05
2017-05-21T03:16:44.739Z,10.96
2017-05-21T03:21:40.836Z,10.82
2017-05-21T03:26:36.666Z,10.76
2017-05-21T03:31:33.941Z,10.81
2017-05-21T03:36:29.281Z,10.44
2017-05-21T03:41:25.209Z,10.48
2017-05-21T03:46:21.068Z,10.67
2017-05-21T03:51:17.307Z,11.10
2017-05-21T03:56:13.171Z,10.90
2017-05-21T04:01:08.981Z,11.11
2017-05-21T04:06:04.963Z,11.50
2017-05-21T04:11:01.997Z,11.50
2017-05-21T04:15:57.508Z,11.52
2017-05-21T04:20:53.423Z,11.43
2017-05-21T04:25:49.887Z,12.17
2017-05-21T04:30:46.132Z,12.50
2017-05-21T04:35:42.299Z,13.27
2017-05-21T04:40:38.490Z,13.83
2017-05-21T04:45:35.032Z,13.95
2017-05-21T04:50:31.192Z,14.23
2017-05-21T04:55:27.641Z,14.22
2017-05-21T05:00:23.972Z,14.79
2017-05-21T05:05:20.233Z,15.03
2017-05-21T05:10:16.991Z,15.02
2017-05-21T05:15:12.720Z,14.68
2017-05-21T05:20:08.842Z,14.60
2017-05-21T05:25:04.417Z,14.12
2017-05-21T05:30:01.245Z,13.78
2017-05-21T05:34:57.281Z,13.90
2017-05-21T05:39:53.399Z,13.77
2017-05-21T05:44:49.570Z,14.28
2017-05-21T05:49:46.128Z,15.04
2017-05-21T05:54:44.931Z,15.14
2017-05-21T05:59:39.783Z,15.03
2017-05-21T06:04:36.540Z,14.58
2017-05-21T06:09:32.938Z,14.29
2017-05-21T06:14:28.751Z,14.04
2017-05-21T06:19:24.238Z,13.95
2017-05-21T06:24:20.252Z,14.03
2017-05-21T06:29:16.284Z,14.10
2017-05-21T06:34:12.731Z,14.33
2017-05-21T06:39:09.943Z,14.36
2017-05-21T06:44:05.574Z,14.60
2017-05-21T06:49:01.120Z,14.81
2017-05-21T06:53:57.397Z,14.79
2017-05-21T06:58:53.516Z,14.88
2017-05-21T07:03:49.351Z,14.84
2017-05-21T07:08:44.604Z,14.91
2017-05-21T07:13:40.887Z,14.94
2017-05-21T07:18:36.695Z,15.07
2017-05-21T07:23:32.604Z,15.29
2017-05-21T07:28:29.045Z,15.47
2017-05-21T07:33:26.539Z,15.57
2017-05-21T07:38:21.868Z,15.86
2017-05-21T07:43:18.252Z,16.04
2017-05-21T07:48:14.553Z,16.74
2017-05-21T07:53:13.723Z,18.19
2017-05-21T07:58:12.008Z,19.64
2017-05-21T08:03:10.149Z,20.84
2017-05-21T08:08:08.178Z,20.93
2017-05-21T08:13:05.430Z,21.48
2017-05-21T08:18:02.810Z,21.93
2017-05-21T08:22:59.765Z,22.13
2017-05-21T08:27:57.176Z,22.26
2017-05-21T08:32:53.920Z,21.46
2017-05-21T08:37:49.722Z,21.91
2017-05-21T08:42:46.338Z,21.93
2017-05-21T08:47:42.744Z,22.85
2017-05-21T08:52:39.628Z,22.88
2017-05-21T08:57:36.056Z,22.78
2017-05-21T09:02:32.574Z,23.09
2017-05-21T09:07:29.429Z,23.28
2017-05-21T09:12:26.059Z,23.18
2017-05-21T09:17:21.799Z,22.81
2017-05-21T09:22:17.695Z,23.03
2017-05-21T09:27:13.732Z,23.21
2017-05-21T09:32:10.410Z,23.17
2017-05-21T09:37:06.615Z,22.65
2017-05-21T09:41:59.186Z,21.98
2017-05-21T09:46:53.217Z,21.17
2017-05-21T09:51:49.663Z,21.55
2017-05-21T09:56:45.545Z,21.64
2017-05-21T10:01:39.627Z,20.93
2017-05-21T10:06:34.419Z,20.56
2017-05-21T10:11:30.908Z,20.84
2017-05-21T10:16:29.242Z,21.24
2017-05-21T10:21:24.317Z,20.99
2017-05-21T10:26:18.572Z,20.47
2017-05-21T10:31:13.646Z,20.37
2017-05-21T10:36:11.363Z,20.60
2017-05-21T10:41:09.236Z,21.57
2017-05-21T10:46:07.941Z,22.18
2017-05-21T10:51:05.232Z,22.78
2017-05-21T10:56:02.170Z,22.96
2017-05-21T11:00:58.587Z,22.66
2017-05-21T11:05:55.168Z,22.81
2017-05-21T11:10:50.772Z,22.76
2017-05-21T11:15:46.803Z,21.95
2017-05-21T11:20:44.342Z,22.15
2017-05-21T11:25:39.065Z,22.14
2017-05-21T11:30:36.535Z,22.25
2017-05-21T11:35:32.262Z,22.55
2017-05-21T11:40:27.183Z,23.18
2017-05-21T11:45:24.632Z,21.64
2017-05-21T11:50:17.445Z,21.61
2017-05-21T11:55:09.468Z,21.96
2017-05-21T12:00:03.976Z,21.82
2017-05-21T12:04:59.205Z,21.76
2017-05-21T12:09:54.326Z,21.14
2017-05-21T12:14:49.503Z,21.03
2017-05-21T12:19:45.237Z,20.85
2017-05-21T12:24:42.887Z,21.02
2017-05-21T12:29:38.869Z,21.07
2017-05-21T12:34:37.252Z,21.05
2017-05-21T12:39:34.913Z,22.20
2017-05-21T12:44:31.264Z,22.90
2017-05-21T12:49:31.144Z,21.92
2017-05-21T12:54:24.230Z,21.40
2017-05-21T12:59:19.332Z,21.21
2017-05-21T13:04:15.305Z,21.22
2017-05-21T13:09:12.098Z,20.95
2017-05-21T13:14:07.207Z,20.43
2017-05-21T13:19:02.831Z,20.58
2017-05-21T13:23:58.559Z,20.31
2017-05-21T13:28:54.535Z,20.25
2017-05-21T13:33:53.525Z,20.21
2017-05-21T13:38:48.340Z,20.16
2017-05-21T13:43:47.741Z,20.25
2017-05-21T13:48:43.292Z,20.58
2017-05-21T13:53:40.538Z,20.77
2017-05-21T13:58:37.090Z,20.29
2017-05-21T14:03:33.089Z,20.70
2017-05-21T14:08:29.119Z,21.12
2017-05-21T14:13:24.793Z,21.05
2017-05-21T14:18:20.274Z,20.97
2017-05-21T14:23:19.104Z,20.81
2017-05-21T14:28:15.471Z,20.50
2017-05-21T14:33:11.051Z,20.44
2017-05-21T14:38:09.273Z,20.75
2017-05-21T14:43:04.862Z,20.72
2017-05-21T14:48:01.164Z,20.66
2017-05-21T14:52:58.083Z,20.85
2017-05-21T14:57:53.567Z,20.66
2017-05-21T15:02:52.331Z,20.34
2017-05-21T15:07:48.601Z,20.44
2017-05-21T15:12:43.939Z,20.48
2017-05-21T15:17:39.980Z,20.72
2017-05-21T15:22:38.582Z,20.72
2017-05-21T15:27:33.442Z,20.51
2017-05-21T15:32:29.656Z,20.60
2017-05-21T15:37:25.838Z,20.72
2017-05-21T15:42:22.479Z,20.13
2017-05-21T15:52:18.626Z,20.29
2017-05-21T15:57:15.757Z,20.06
2017-05-21T16:02:11.364Z,20.06
2017-05-21T16:07:07.213Z,19.96
2017-05-21T16:12:03.154Z,19.95
2017-05-21T16:17:00.275Z,19.94
2017-05-21T16:21:55.574Z,20.03
2017-05-21T16:26:51.701Z,20.04
2017-05-21T16:31:47.689Z,19.89
2017-05-21T16:36:44.171Z,19.92
2017-05-21T16:41:39.841Z,19.86
2017-05-21T16:46:36.207Z,20.00
2017-05-21T16:51:31.901Z,20.04
2017-05-21T16:56:27.883Z,19.86
2017-05-21T17:01:24.042Z,19.86
2017-05-21T17:06:20.018Z,19.86
2017-05-21T17:11:16.866Z,19.85
2017-05-21T17:16:12.251Z,19.89
2017-05-21T17:21:08.327Z,19.84
2017-05-21T17:26:04.264Z,19.76
2017-05-21T17:31:00.738Z,19.82
2017-05-21T17:35:58.271Z,19.84
2017-05-21T17:40:56.636Z,19.67
2017-05-21T17:45:52.501Z,19.73
2017-05-21T17:50:54.273Z,19.66
2017-05-21T17:55:54.155Z,19.64
2017-05-21T18:00:48.675Z,19.54
2017-05-21T18:05:44.772Z,19.49
2017-05-21T18:10:41.516Z,19.47
2017-05-21T18:15:38.376Z,19.55
2017-05-21T18:20:34.750Z,19.37
2017-05-21T18:25:35.203Z,19.40
2017-05-21T18:30:31.962Z,19.30
2017-05-21T18:35:28.719Z,19.19
2017-05-21T18:40:24.342Z,19.12
2017-05-21T18:45:20.983Z,19.11
2017-05-21T18:50:17.344Z,19.07
2017-05-21T18:55:14.449Z,18.96
2017-05-21T19:00:16.845Z,18.83
2017-05-21T19:15:14.409Z,18.49
2017-05-21T19:20:12.629Z,18.47
2017-05-21T19:25:07.873Z,18.26
2017-05-21T19:30:04.402Z,18.08
2017-05-21T19:35:00.167Z,17.94
2017-05-21T19:39:56.742Z,17.86
2017-05-21T19:44:52.540Z,17.79
2017-05-21T19:49:48.773Z,17.57
2017-05-21T19:54:45.207Z,17.46
2017-05-21T19:59:41.398Z,17.41
2017-05-21T20:04:37.274Z,17.45
2017-05-21T20:09:33.537Z,17.27
2017-05-21T20:14:29.967Z,17.27
2017-05-21T20:19:30.484Z,17.16
2017-05-21T20:24:26.345Z,17.15
2017-05-21T20:29:22.952Z,17.05
2017-05-21T20:34:19.118Z,16.89
2017-05-21T20:39:14.921Z,16.86
2017-05-21T20:44:11.872Z,16.74
2017-05-21T20:49:08.502Z,16.76
2017-05-21T20:54:03.916Z,16.72
2017-05-21T20:59:00.219Z,16.60
2017-05-21T21:03:56.199Z,16.56
2017-05-21T21:13:52.083Z,16.33
2017-05-21T21:18:47.641Z,16.36
2017-05-21T21:23:44.024Z,16.23
2017-05-21T21:28:40.157Z,16.20
2017-05-21T21:33:36.953Z,16.17
2017-05-21T21:38:32.504Z,16.24
2017-05-21T21:43:29.648Z,16.02
2017-05-21T21:48:24.987Z,15.97
2017-05-21T21:53:21.517Z,15.94
2017-05-21T21:58:17.972Z,15.86
2017-05-21T22:03:13.729Z,15.90
2017-05-21T22:08:09.565Z,15.91
2017-05-21T22:13:05.694Z,15.83
2017-05-21T22:18:02.407Z,15.68
2017-05-21T22:22:59.037Z,15.49
2017-05-21T22:27:55.881Z,15.51
2017-05-21T22:32:51.447Z,15.21
2017-05-21T22:42:52.774Z,14.97
2017-05-21T22:47:49.110Z,15.02
2017-05-21T22:52:44.771Z,14.99
2017-05-21T22:57:44.765Z,14.82
2017-05-21T23:02:39.349Z,14.63
2017-05-21T23:07:36.339Z,14.72
2017-05-21T23:12:31.967Z,14.55
2017-05-21T23:17:28.309Z,14.58
2017-05-21T23:22:23.974Z,14.55
2017-05-21T23:27:20.471Z,14.63
2017-05-21T23:32:16.335Z,14.68
2017-05-21T23:37:12.571Z,14.60
2017-05-21T23:42:09.182Z,14.73
2017-05-21T23:47:05.436Z,14.66
2017-05-21T23:52:01.200Z,14.72
2017-05-21T23:56:57.374Z,14.84
